sensor_id;sensor_type;location;lat;lon;timestamp;P1;durP1;ratioP1;P2;durP2;ratioP2
11305;SDS011;5708;50.660;6.778;2023-07-29T00:00:39;1.88;;;1.15;;
11305;SDS011;5708;50.660;6.778;2023-07-29T00:03:04;2.10;;;1.13;;
11305;SDS011;5708;50.660;6.778;2023-07-29T00:05:30;3.83;;;1.50;;
11305;SDS011;5708;50.660;6.778;2023-07-29T00:07:55;1.85;;;1.15;;
11305;SDS011;5708;50.660;6.778;2023-07-29T00:10:21;1.48;;;1.00;;
11305;SDS011;5708;50.660;6.778;2023-07-29T00:12:47;2.50;;;1.00;;
11305;SDS011;5708;50.660;6.778;2023-07-29T00:15:12;3.78;;;1.17;;
11305;SDS011;5708;50.660;6.778;2023-07-29T00:17:38;5.20;;;1.27;;
11305;SDS011;5708;50.660;6.778;2023-07-29T00:20:04;4.13;;;1.20;;
11305;SDS011;5708;50.660;6.778;2023-07-29T00:22:30;2.10;;;1.00;;
11305;SDS011;5708;50.660;6.778;2023-07-29T00:24:55;4.28;;;1.00;;
11305;SDS011;5708;50.660;6.778;2023-07-29T00:27:25;2.53;;;1.50;;
11305;SDS011;5708;50.660;6.778;2023-07-29T00:29:51;4.30;;;1.15;;
11305;SDS011;5708;50.660;6.778;2023-07-29T00:32:17;2.33;;;1.10;;
11305;SDS011;5708;50.660;6.778;2023-07-29T00:34:42;2.65;;;1.23;;
11305;SDS011;5708;50.660;6.778;2023-07-29T00:37:07;3.58;;;1.20;;
11305;SDS011;5708;50.660;6.778;2023-07-29T00:39:33;4.47;;;1.08;;
11305;SDS011;5708;50.660;6.778;2023-07-29T00:41:58;3.75;;;1.40;;
11305;SDS011;5708;50.660;6.778;2023-07-29T00:44:24;2.25;;;1.23;;
11305;SDS011;5708;50.660;6.778;2023-07-29T00:46:52;1.52;;;1.10;;
11305;SDS011;5708;50.660;6.778;2023-07-29T00:49:19;2.75;;;1.27;;
11305;SDS011;5708;50.660;6.778;2023-07-29T00:51:45;2.70;;;1.10;;
11305;SDS011;5708;50.660;6.778;2023-07-29T00:54:11;1.83;;;1.00;;
11305;SDS011;5708;50.660;6.778;2023-07-29T00:56:36;5.28;;;1.88;;
11305;SDS011;5708;50.660;6.778;2023-07-29T00:59:02;3.60;;;1.30;;
11305;SDS011;5708;50.660;6.778;2023-07-29T01:01:29;2.60;;;1.35;;
11305;SDS011;5708;50.660;6.778;2023-07-29T01:03:54;3.88;;;1.20;;
11305;SDS011;5708;50.660;6.778;2023-07-29T01:09:03;5.32;;;1.42;;
11305;SDS011;5708;50.660;6.778;2023-07-29T01:11:35;4.57;;;1.70;;
11305;SDS011;5708;50.660;6.778;2023-07-29T01:14:11;4.78;;;1.25;;
11305;SDS011;5708;50.660;6.778;2023-07-29T01:16:47;3.67;;;1.40;;
11305;SDS011;5708;50.660;6.778;2023-07-29T01:22:22;1.38;;;1.00;;
11305;SDS011;5708;50.660;6.778;2023-07-29T01:24:49;2.50;;;1.10;;
11305;SDS011;5708;50.660;6.778;2023-07-29T01:27:14;6.03;;;1.35;;
11305;SDS011;5708;50.660;6.778;2023-07-29T01:29:39;2.42;;;1.45;;
11305;SDS011;5708;50.660;6.778;2023-07-29T01:32:07;2.95;;;1.10;;
11305;SDS011;5708;50.660;6.778;2023-07-29T01:34:39;1.45;;;1.20;;
11305;SDS011;5708;50.660;6.778;2023-07-29T01:37:09;3.78;;;1.30;;
11305;SDS011;5708;50.660;6.778;2023-07-29T01:39:36;4.13;;;1.23;;
11305;SDS011;5708;50.660;6.778;2023-07-29T01:42:02;2.50;;;1.15;;
11305;SDS011;5708;50.660;6.778;2023-07-29T01:44:28;2.55;;;1.27;;
11305;SDS011;5708;50.660;6.778;2023-07-29T01:46:55;4.18;;;1.30;;
11305;SDS011;5708;50.660;6.778;2023-07-29T01:49:21;4.15;;;1.33;;
11305;SDS011;5708;50.660;6.778;2023-07-29T01:51:46;2.08;;;1.15;;
11305;SDS011;5708;50.660;6.778;2023-07-29T01:54:11;1.95;;;1.30;;
11305;SDS011;5708;50.660;6.778;2023-07-29T01:56:37;4.75;;;1.30;;
11305;SDS011;5708;50.660;6.778;2023-07-29T01:59:02;5.00;;;1.20;;
11305;SDS011;5708;50.660;6.778;2023-07-29T02:01:27;1.33;;;1.10;;
11305;SDS011;5708;50.660;6.778;2023-07-29T02:03:53;3.03;;;1.23;;
11305;SDS011;5708;50.660;6.778;2023-07-29T02:06:20;1.52;;;1.10;;
11305;SDS011;5708;50.660;6.778;2023-07-29T02:08:46;2.60;;;1.00;;
11305;SDS011;5708;50.660;6.778;2023-07-29T02:11:11;3.10;;;1.50;;
11305;SDS011;5708;50.660;6.778;2023-07-29T02:13:37;1.70;;;0.98;;
11305;SDS011;5708;50.660;6.778;2023-07-29T02:16:02;2.60;;;1.10;;
11305;SDS011;5708;50.660;6.778;2023-07-29T02:18:28;4.80;;;1.10;;
11305;SDS011;5708;50.660;6.778;2023-07-29T02:20:53;3.30;;;1.20;;
11305;SDS011;5708;50.660;6.778;2023-07-29T02:23:18;2.67;;;1.50;;
11305;SDS011;5708;50.660;6.778;2023-07-29T02:25:44;2.13;;;1.17;;
11305;SDS011;5708;50.660;6.778;2023-07-29T02:28:09;5.15;;;1.35;;
11305;SDS011;5708;50.660;6.778;2023-07-29T02:30:34;6.95;;;2.10;;
11305;SDS011;5708;50.660;6.778;2023-07-29T02:33:00;9.95;;;1.52;;
11305;SDS011;5708;50.660;6.778;2023-07-29T02:35:26;4.72;;;1.52;;
11305;SDS011;5708;50.660;6.778;2023-07-29T02:37:52;6.05;;;1.20;;
11305;SDS011;5708;50.660;6.778;2023-07-29T02:40:20;6.55;;;0.90;;
11305;SDS011;5708;50.660;6.778;2023-07-29T02:42:47;5.90;;;1.33;;
11305;SDS011;5708;50.660;6.778;2023-07-29T02:45:13;5.35;;;1.08;;
11305;SDS011;5708;50.660;6.778;2023-07-29T02:47:38;5.05;;;1.23;;
11305;SDS011;5708;50.660;6.778;2023-07-29T02:50:03;2.58;;;1.08;;
11305;SDS011;5708;50.660;6.778;2023-07-29T02:52:32;2.10;;;0.90;;
11305;SDS011;5708;50.660;6.778;2023-07-29T02:54:58;1.52;;;0.95;;
11305;SDS011;5708;50.660;6.778;2023-07-29T02:57:23;2.17;;;1.00;;
11305;SDS011;5708;50.660;6.778;2023-07-29T02:59:48;2.85;;;1.13;;
11305;SDS011;5708;50.660;6.778;2023-07-29T03:02:14;2.75;;;1.00;;
11305;SDS011;5708;50.660;6.778;2023-07-29T03:04:41;4.18;;;1.20;;
11305;SDS011;5708;50.660;6.778;2023-07-29T03:07:06;2.65;;;1.33;;
11305;SDS011;5708;50.660;6.778;2023-07-29T03:09:32;4.35;;;1.38;;
11305;SDS011;5708;50.660;6.778;2023-07-29T03:11:58;5.55;;;1.48;;
11305;SDS011;5708;50.660;6.778;2023-07-29T03:14:24;4.28;;;1.67;;
11305;SDS011;5708;50.660;6.778;2023-07-29T03:16:49;3.15;;;1.38;;
11305;SDS011;5708;50.660;6.778;2023-07-29T03:19:15;3.58;;;1.55;;
11305;SDS011;5708;50.660;6.778;2023-07-29T03:21:40;3.25;;;1.50;;
11305;SDS011;5708;50.660;6.778;2023-07-29T03:24:05;4.50;;;1.70;;
11305;SDS011;5708;50.660;6.778;2023-07-29T03:26:32;6.00;;;1.88;;
11305;SDS011;5708;50.660;6.778;2023-07-29T03:28:57;4.82;;;1.60;;
11305;SDS011;5708;50.660;6.778;2023-07-29T03:31:22;3.85;;;1.52;;
11305;SDS011;5708;50.660;6.778;2023-07-29T03:33:48;2.72;;;1.45;;
11305;SDS011;5708;50.660;6.778;2023-07-29T03:36:13;4.22;;;1.67;;
11305;SDS011;5708;50.660;6.778;2023-07-29T03:38:39;4.13;;;1.88;;
11305;SDS011;5708;50.660;6.778;2023-07-29T03:41:06;3.97;;;1.73;;
11305;SDS011;5708;50.660;6.778;2023-07-29T03:43:35;3.88;;;1.63;;
11305;SDS011;5708;50.660;6.778;2023-07-29T03:46:00;3.65;;;1.75;;
11305;SDS011;5708;50.660;6.778;2023-07-29T03:48:26;2.65;;;1.70;;
11305;SDS011;5708;50.660;6.778;2023-07-29T03:50:51;4.20;;;1.88;;
11305;SDS011;5708;50.660;6.778;2023-07-29T03:53:16;3.25;;;1.67;;
11305;SDS011;5708;50.660;6.778;2023-07-29T03:55:42;5.90;;;2.38;;
11305;SDS011;5708;50.660;6.778;2023-07-29T03:58:08;4.13;;;1.90;;
11305;SDS011;5708;50.660;6.778;2023-07-29T04:00:33;3.85;;;1.90;;
11305;SDS011;5708;50.660;6.778;2023-07-29T04:02:58;4.22;;;1.73;;
11305;SDS011;5708;50.660;6.778;2023-07-29T04:05:24;3.22;;;2.00;;
11305;SDS011;5708;50.660;6.778;2023-07-29T04:07:49;5.53;;;2.20;;
11305;SDS011;5708;50.660;6.778;2023-07-29T04:10:15;5.28;;;1.98;;
11305;SDS011;5708;50.660;6.778;2023-07-29T04:12:40;4.32;;;2.10;;
11305;SDS011;5708;50.660;6.778;2023-07-29T04:15:06;3.33;;;1.90;;
11305;SDS011;5708;50.660;6.778;2023-07-29T04:17:31;4.28;;;2.10;;
11305;SDS011;5708;50.660;6.778;2023-07-29T04:20:00;5.35;;;2.30;;
11305;SDS011;5708;50.660;6.778;2023-07-29T04:22:25;4.40;;;2.13;;
11305;SDS011;5708;50.660;6.778;2023-07-29T04:24:50;3.90;;;2.00;;
11305;SDS011;5708;50.660;6.778;2023-07-29T04:27:16;5.38;;;2.20;;
11305;SDS011;5708;50.660;6.778;2023-07-29T04:29:41;4.20;;;2.35;;
11305;SDS011;5708;50.660;6.778;2023-07-29T04:32:07;3.38;;;2.28;;
11305;SDS011;5708;50.660;6.778;2023-07-29T04:34:32;3.35;;;1.95;;
11305;SDS011;5708;50.660;6.778;2023-07-29T04:36:57;3.95;;;2.40;;
11305;SDS011;5708;50.660;6.778;2023-07-29T04:39:23;3.88;;;2.20;;
11305;SDS011;5708;50.660;6.778;2023-07-29T04:41:48;3.95;;;2.40;;
11305;SDS011;5708;50.660;6.778;2023-07-29T04:44:14;2.97;;;2.17;;
11305;SDS011;5708;50.660;6.778;2023-07-29T04:46:39;4.63;;;2.40;;
11305;SDS011;5708;50.660;6.778;2023-07-29T04:49:05;6.53;;;2.20;;
11305;SDS011;5708;50.660;6.778;2023-07-29T04:51:30;4.80;;;2.38;;
11305;SDS011;5708;50.660;6.778;2023-07-29T04:53:56;3.38;;;2.10;;
11305;SDS011;5708;50.660;6.778;2023-07-29T04:56:22;4.95;;;2.60;;
11305;SDS011;5708;50.660;6.778;2023-07-29T04:58:47;4.63;;;2.38;;
11305;SDS011;5708;50.660;6.778;2023-07-29T05:01:13;6.65;;;2.53;;
11305;SDS011;5708;50.660;6.778;2023-07-29T05:03:38;4.05;;;2.55;;
11305;SDS011;5708;50.660;6.778;2023-07-29T05:06:04;5.43;;;2.70;;
11305;SDS011;5708;50.660;6.778;2023-07-29T05:08:30;4.22;;;2.33;;
11305;SDS011;5708;50.660;6.778;2023-07-29T05:10:55;3.58;;;2.42;;
11305;SDS011;5708;50.660;6.778;2023-07-29T05:13:21;4.50;;;2.50;;
11305;SDS011;5708;50.660;6.778;2023-07-29T05:15:47;3.50;;;2.10;;
11305;SDS011;5708;50.660;6.778;2023-07-29T05:18:13;4.18;;;2.50;;
11305;SDS011;5708;50.660;6.778;2023-07-29T05:20:39;4.53;;;2.15;;
11305;SDS011;5708;50.660;6.778;2023-07-29T05:23:04;4.45;;;2.47;;
11305;SDS011;5708;50.660;6.778;2023-07-29T05:25:30;5.07;;;2.60;;
11305;SDS011;5708;50.660;6.778;2023-07-29T05:27:55;3.65;;;2.40;;
11305;SDS011;5708;50.660;6.778;2023-07-29T05:30:22;6.05;;;2.40;;
11305;SDS011;5708;50.660;6.778;2023-07-29T05:32:47;3.63;;;2.35;;
11305;SDS011;5708;50.660;6.778;2023-07-29T05:35:13;3.70;;;2.60;;
11305;SDS011;5708;50.660;6.778;2023-07-29T05:37:39;5.68;;;2.65;;
11305;SDS011;5708;50.660;6.778;2023-07-29T05:40:05;5.00;;;2.90;;
11305;SDS011;5708;50.660;6.778;2023-07-29T05:42:32;4.72;;;2.75;;
11305;SDS011;5708;50.660;6.778;2023-07-29T05:44:57;5.28;;;2.97;;
11305;SDS011;5708;50.660;6.778;2023-07-29T05:47:23;7.45;;;2.75;;
11305;SDS011;5708;50.660;6.778;2023-07-29T05:49:48;4.15;;;2.92;;
11305;SDS011;5708;50.660;6.778;2023-07-29T05:52:13;4.85;;;3.00;;
11305;SDS011;5708;50.660;6.778;2023-07-29T05:54:39;6.95;;;3.00;;
11305;SDS011;5708;50.660;6.778;2023-07-29T05:57:04;5.90;;;2.80;;
11305;SDS011;5708;50.660;6.778;2023-07-29T05:59:30;3.83;;;2.63;;
11305;SDS011;5708;50.660;6.778;2023-07-29T06:01:56;10.57;;;2.30;;
11305;SDS011;5708;50.660;6.778;2023-07-29T06:04:21;6.00;;;2.25;;
11305;SDS011;5708;50.660;6.778;2023-07-29T06:06:47;5.57;;;2.08;;
11305;SDS011;5708;50.660;6.778;2023-07-29T06:09:12;3.00;;;1.92;;
11305;SDS011;5708;50.660;6.778;2023-07-29T06:11:38;5.55;;;2.42;;
11305;SDS011;5708;50.660;6.778;2023-07-29T06:14:03;3.40;;;2.13;;
11305;SDS011;5708;50.660;6.778;2023-07-29T06:16:28;3.83;;;1.75;;
11305;SDS011;5708;50.660;6.778;2023-07-29T06:18:54;3.90;;;1.95;;
11305;SDS011;5708;50.660;6.778;2023-07-29T06:21:19;3.47;;;1.98;;
11305;SDS011;5708;50.660;6.778;2023-07-29T06:23:45;3.63;;;1.90;;
11305;SDS011;5708;50.660;6.778;2023-07-29T06:26:11;4.35;;;1.90;;
11305;SDS011;5708;50.660;6.778;2023-07-29T06:28:36;3.58;;;1.90;;
11305;SDS011;5708;50.660;6.778;2023-07-29T06:31:01;3.25;;;1.65;;
11305;SDS011;5708;50.660;6.778;2023-07-29T06:33:27;4.75;;;1.65;;
11305;SDS011;5708;50.660;6.778;2023-07-29T06:35:52;8.02;;;2.22;;
11305;SDS011;5708;50.660;6.778;2023-07-29T06:38:17;3.50;;;2.03;;
11305;SDS011;5708;50.660;6.778;2023-07-29T06:40:46;4.25;;;1.88;;
11305;SDS011;5708;50.660;6.778;2023-07-29T06:43:14;4.30;;;1.90;;
11305;SDS011;5708;50.660;6.778;2023-07-29T06:45:40;3.78;;;1.90;;
11305;SDS011;5708;50.660;6.778;2023-07-29T06:48:05;6.15;;;2.08;;
11305;SDS011;5708;50.660;6.778;2023-07-29T06:50:30;3.97;;;1.85;;
11305;SDS011;5708;50.660;6.778;2023-07-29T06:52:56;6.00;;;1.70;;
11305;SDS011;5708;50.660;6.778;2023-07-29T06:55:21;6.38;;;2.05;;
11305;SDS011;5708;50.660;6.778;2023-07-29T06:57:47;2.58;;;1.50;;
11305;SDS011;5708;50.660;6.778;2023-07-29T07:00:12;3.95;;;1.80;;
11305;SDS011;5708;50.660;6.778;2023-07-29T07:02:37;2.85;;;1.77;;
11305;SDS011;5708;50.660;6.778;2023-07-29T07:05:03;6.55;;;1.90;;
11305;SDS011;5708;50.660;6.778;2023-07-29T07:07:28;8.57;;;1.88;;
11305;SDS011;5708;50.660;6.778;2023-07-29T07:09:54;5.72;;;2.30;;
11305;SDS011;5708;50.660;6.778;2023-07-29T07:12:19;7.82;;;2.95;;
11305;SDS011;5708;50.660;6.778;2023-07-29T07:14:45;7.10;;;2.72;;
11305;SDS011;5708;50.660;6.778;2023-07-29T07:17:10;3.13;;;2.00;;
11305;SDS011;5708;50.660;6.778;2023-07-29T07:19:35;3.67;;;1.70;;
11305;SDS011;5708;50.660;6.778;2023-07-29T07:22:01;4.15;;;1.80;;
11305;SDS011;5708;50.660;6.778;2023-07-29T07:24:26;3.55;;;1.70;;
11305;SDS011;5708;50.660;6.778;2023-07-29T07:26:52;4.10;;;1.75;;
11305;SDS011;5708;50.660;6.778;2023-07-29T07:29:17;2.72;;;1.40;;
11305;SDS011;5708;50.660;6.778;2023-07-29T07:31:47;6.03;;;1.70;;
11305;SDS011;5708;50.660;6.778;2023-07-29T07:34:15;4.25;;;1.70;;
11305;SDS011;5708;50.660;6.778;2023-07-29T07:36:40;2.60;;;1.52;;
11305;SDS011;5708;50.660;6.778;2023-07-29T07:39:06;5.82;;;1.88;;
11305;SDS011;5708;50.660;6.778;2023-07-29T07:41:31;3.35;;;1.50;;
11305;SDS011;5708;50.660;6.778;2023-07-29T07:43:57;3.47;;;1.35;;
11305;SDS011;5708;50.660;6.778;2023-07-29T07:46:22;3.47;;;1.50;;
11305;SDS011;5708;50.660;6.778;2023-07-29T07:48:47;2.25;;;1.38;;
11305;SDS011;5708;50.660;6.778;2023-07-29T07:51:13;4.90;;;1.67;;
11305;SDS011;5708;50.660;6.778;2023-07-29T07:53:38;4.10;;;1.50;;
11305;SDS011;5708;50.660;6.778;2023-07-29T07:56:05;2.88;;;1.42;;
11305;SDS011;5708;50.660;6.778;2023-07-29T07:58:31;3.03;;;1.60;;
11305;SDS011;5708;50.660;6.778;2023-07-29T08:01:06;4.90;;;1.58;;
11305;SDS011;5708;50.660;6.778;2023-07-29T08:03:33;2.60;;;1.60;;
11305;SDS011;5708;50.660;6.778;2023-07-29T08:05:59;3.40;;;1.55;;
11305;SDS011;5708;50.660;6.778;2023-07-29T08:08:25;2.67;;;1.50;;
11305;SDS011;5708;50.660;6.778;2023-07-29T08:10:52;1.75;;;1.30;;
11305;SDS011;5708;50.660;6.778;2023-07-29T08:13:18;4.97;;;1.50;;
11305;SDS011;5708;50.660;6.778;2023-07-29T08:15:45;2.90;;;1.50;;
11305;SDS011;5708;50.660;6.778;2023-07-29T08:18:12;2.72;;;1.40;;
11305;SDS011;5708;50.660;6.778;2023-07-29T08:20:37;3.78;;;1.20;;
11305;SDS011;5708;50.660;6.778;2023-07-29T08:23:04;6.43;;;1.75;;
11305;SDS011;5708;50.660;6.778;2023-07-29T08:25:29;3.38;;;1.55;;
11305;SDS011;5708;50.660;6.778;2023-07-29T08:27:54;2.55;;;1.40;;
11305;SDS011;5708;50.660;6.778;2023-07-29T08:30:20;4.38;;;1.95;;
11305;SDS011;5708;50.660;6.778;2023-07-29T08:32:45;3.60;;;1.38;;
11305;SDS011;5708;50.660;6.778;2023-07-29T08:35:11;1.90;;;1.20;;
11305;SDS011;5708;50.660;6.778;2023-07-29T08:37:39;3.45;;;1.83;;
11305;SDS011;5708;50.660;6.778;2023-07-29T08:40:05;2.95;;;1.33;;
11305;SDS011;5708;50.660;6.778;2023-07-29T08:42:31;4.10;;;1.30;;
11305;SDS011;5708;50.660;6.778;2023-07-29T08:44:57;3.33;;;1.58;;
11305;SDS011;5708;50.660;6.778;2023-07-29T08:47:26;5.07;;;1.55;;
11305;SDS011;5708;50.660;6.778;2023-07-29T08:49:52;2.17;;;1.20;;
11305;SDS011;5708;50.660;6.778;2023-07-29T08:52:17;2.85;;;1.25;;
11305;SDS011;5708;50.660;6.778;2023-07-29T08:54:43;1.80;;;1.38;;
11305;SDS011;5708;50.660;6.778;2023-07-29T08:57:08;5.20;;;1.50;;
11305;SDS011;5708;50.660;6.778;2023-07-29T08:59:34;4.15;;;1.48;;
11305;SDS011;5708;50.660;6.778;2023-07-29T09:01:59;2.25;;;1.30;;
11305;SDS011;5708;50.660;6.778;2023-07-29T09:04:25;3.20;;;1.50;;
11305;SDS011;5708;50.660;6.778;2023-07-29T09:06:51;2.50;;;1.42;;
11305;SDS011;5708;50.660;6.778;2023-07-29T09:09:16;2.85;;;1.60;;
11305;SDS011;5708;50.660;6.778;2023-07-29T09:11:43;3.88;;;1.30;;
11305;SDS011;5708;50.660;6.778;2023-07-29T09:14:09;2.83;;;1.50;;
11305;SDS011;5708;50.660;6.778;2023-07-29T09:16:35;2.92;;;1.40;;
11305;SDS011;5708;50.660;6.778;2023-07-29T09:19:01;2.00;;;1.27;;
11305;SDS011;5708;50.660;6.778;2023-07-29T09:21:28;1.95;;;1.13;;
11305;SDS011;5708;50.660;6.778;2023-07-29T09:23:54;5.72;;;1.70;;
11305;SDS011;5708;50.660;6.778;2023-07-29T09:26:26;3.92;;;1.50;;
11305;SDS011;5708;50.660;6.778;2023-07-29T09:28:53;4.05;;;1.60;;
11305;SDS011;5708;50.660;6.778;2023-07-29T09:31:20;1.88;;;1.10;;
11305;SDS011;5708;50.660;6.778;2023-07-29T09:33:47;2.38;;;1.35;;
11305;SDS011;5708;50.660;6.778;2023-07-29T09:36:12;3.22;;;1.60;;
11305;SDS011;5708;50.660;6.778;2023-07-29T09:38:38;2.17;;;1.20;;
11305;SDS011;5708;50.660;6.778;2023-07-29T09:41:03;1.77;;;1.10;;
11305;SDS011;5708;50.660;6.778;2023-07-29T09:43:30;2.38;;;1.30;;
11305;SDS011;5708;50.660;6.778;2023-07-29T09:46:00;2.00;;;1.30;;
11305;SDS011;5708;50.660;6.778;2023-07-29T09:48:26;3.72;;;1.33;;
11305;SDS011;5708;50.660;6.778;2023-07-29T09:50:53;1.90;;;1.38;;
11305;SDS011;5708;50.660;6.778;2023-07-29T09:53:19;1.70;;;1.25;;
11305;SDS011;5708;50.660;6.778;2023-07-29T09:55:48;3.10;;;1.30;;
11305;SDS011;5708;50.660;6.778;2023-07-29T09:58:15;2.03;;;1.30;;
11305;SDS011;5708;50.660;6.778;2023-07-29T10:00:44;1.88;;;1.38;;
11305;SDS011;5708;50.660;6.778;2023-07-29T10:03:10;2.42;;;1.27;;
11305;SDS011;5708;50.660;6.778;2023-07-29T10:05:36;3.00;;;1.77;;
11305;SDS011;5708;50.660;6.778;2023-07-29T10:08:04;9.77;;;5.28;;
11305;SDS011;5708;50.660;6.778;2023-07-29T10:10:29;5.97;;;2.50;;
11305;SDS011;5708;50.660;6.778;2023-07-29T10:12:55;4.88;;;1.85;;
11305;SDS011;5708;50.660;6.778;2023-07-29T10:15:21;2.75;;;1.80;;
11305;SDS011;5708;50.660;6.778;2023-07-29T10:17:47;3.40;;;1.73;;
11305;SDS011;5708;50.660;6.778;2023-07-29T10:20:13;4.18;;;1.90;;
11305;SDS011;5708;50.660;6.778;2023-07-29T10:22:39;3.13;;;1.60;;
11305;SDS011;5708;50.660;6.778;2023-07-29T10:25:29;3.70;;;1.90;;
11305;SDS011;5708;50.660;6.778;2023-07-29T10:28:04;4.38;;;2.00;;
11305;SDS011;5708;50.660;6.778;2023-07-29T10:30:31;5.32;;;2.08;;
11305;SDS011;5708;50.660;6.778;2023-07-29T10:32:58;4.32;;;1.88;;
11305;SDS011;5708;50.660;6.778;2023-07-29T10:35:27;3.83;;;1.92;;
11305;SDS011;5708;50.660;6.778;2023-07-29T10:37:52;3.90;;;2.08;;
11305;SDS011;5708;50.660;6.778;2023-07-29T10:40:18;5.97;;;2.47;;
11305;SDS011;5708;50.660;6.778;2023-07-29T10:43:00;5.57;;;2.70;;
11305;SDS011;5708;50.660;6.778;2023-07-29T10:45:36;4.72;;;2.30;;
11305;SDS011;5708;50.660;6.778;2023-07-29T10:48:13;6.82;;;3.05;;
11305;SDS011;5708;50.660;6.778;2023-07-29T10:50:39;5.50;;;3.13;;
11305;SDS011;5708;50.660;6.778;2023-07-29T10:53:04;6.30;;;3.00;;
11305;SDS011;5708;50.660;6.778;2023-07-29T10:55:34;5.20;;;2.40;;
11305;SDS011;5708;50.660;6.778;2023-07-29T10:58:08;3.80;;;1.98;;
11305;SDS011;5708;50.660;6.778;2023-07-29T11:00:35;4.07;;;2.35;;
11305;SDS011;5708;50.660;6.778;2023-07-29T11:03:09;6.20;;;2.63;;
11305;SDS011;5708;50.660;6.778;2023-07-29T11:05:44;3.20;;;2.10;;
11305;SDS011;5708;50.660;6.778;2023-07-29T11:08:20;3.15;;;2.00;;
11305;SDS011;5708;50.660;6.778;2023-07-29T11:13:28;3.45;;;1.70;;
11305;SDS011;5708;50.660;6.778;2023-07-29T11:15:54;4.60;;;2.13;;
11305;SDS011;5708;50.660;6.778;2023-07-29T11:18:21;3.58;;;1.75;;
11305;SDS011;5708;50.660;6.778;2023-07-29T11:20:46;3.28;;;1.70;;
11305;SDS011;5708;50.660;6.778;2023-07-29T11:23:13;4.53;;;2.00;;
11305;SDS011;5708;50.660;6.778;2023-07-29T11:25:38;3.75;;;1.63;;
11305;SDS011;5708;50.660;6.778;2023-07-29T11:28:04;3.17;;;1.77;;
11305;SDS011;5708;50.660;6.778;2023-07-29T11:30:29;4.53;;;1.58;;
11305;SDS011;5708;50.660;6.778;2023-07-29T11:32:55;3.47;;;1.90;;
11305;SDS011;5708;50.660;6.778;2023-07-29T11:35:21;3.70;;;1.70;;
11305;SDS011;5708;50.660;6.778;2023-07-29T11:37:48;4.25;;;1.85;;
11305;SDS011;5708;50.660;6.778;2023-07-29T11:40:20;3.22;;;1.70;;
11305;SDS011;5708;50.660;6.778;2023-07-29T11:42:47;2.95;;;1.52;;
11305;SDS011;5708;50.660;6.778;2023-07-29T11:45:14;4.90;;;1.45;;
11305;SDS011;5708;50.660;6.778;2023-07-29T11:47:40;4.03;;;1.75;;
11305;SDS011;5708;50.660;6.778;2023-07-29T11:50:09;2.90;;;1.30;;
11305;SDS011;5708;50.660;6.778;2023-07-29T11:52:35;2.92;;;1.67;;
11305;SDS011;5708;50.660;6.778;2023-07-29T11:55:02;5.55;;;1.40;;
11305;SDS011;5708;50.660;6.778;2023-07-29T11:57:29;1.75;;;1.30;;
11305;SDS011;5708;50.660;6.778;2023-07-29T12:00:02;1.42;;;1.02;;
11305;SDS011;5708;50.660;6.778;2023-07-29T12:02:29;2.47;;;1.30;;
11305;SDS011;5708;50.660;6.778;2023-07-29T12:04:55;3.28;;;1.52;;
11305;SDS011;5708;50.660;6.778;2023-07-29T12:07:22;3.72;;;1.70;;
11305;SDS011;5708;50.660;6.778;2023-07-29T12:09:47;1.95;;;1.38;;
11305;SDS011;5708;50.660;6.778;2023-07-29T12:12:13;2.72;;;1.00;;
11305;SDS011;5708;50.660;6.778;2023-07-29T12:14:38;1.25;;;1.00;;
11305;SDS011;5708;50.660;6.778;2023-07-29T12:17:05;1.10;;;0.60;;
11305;SDS011;5708;50.660;6.778;2023-07-29T12:19:31;1.20;;;0.60;;
11305;SDS011;5708;50.660;6.778;2023-07-29T12:21:58;1.00;;;0.80;;
11305;SDS011;5708;50.660;6.778;2023-07-29T12:24:23;1.45;;;0.90;;
11305;SDS011;5708;50.660;6.778;2023-07-29T12:26:49;2.00;;;0.80;;
11305;SDS011;5708;50.660;6.778;2023-07-29T12:29:14;0.80;;;0.70;;
11305;SDS011;5708;50.660;6.778;2023-07-29T12:31:41;2.40;;;1.23;;
11305;SDS011;5708;50.660;6.778;2023-07-29T12:34:06;2.65;;;1.02;;
11305;SDS011;5708;50.660;6.778;2023-07-29T12:36:45;2.65;;;0.88;;
11305;SDS011;5708;50.660;6.778;2023-07-29T12:39:18;1.00;;;0.90;;
11305;SDS011;5708;50.660;6.778;2023-07-29T12:41:54;2.17;;;1.20;;
11305;SDS011;5708;50.660;6.778;2023-07-29T12:44:22;1.35;;;0.90;;
11305;SDS011;5708;50.660;6.778;2023-07-29T12:46:48;1.55;;;0.90;;
11305;SDS011;5708;50.660;6.778;2023-07-29T12:49:13;3.40;;;1.10;;
11305;SDS011;5708;50.660;6.778;2023-07-29T12:51:39;1.10;;;0.90;;
11305;SDS011;5708;50.660;6.778;2023-07-29T12:54:04;1.60;;;0.95;;
11305;SDS011;5708;50.660;6.778;2023-07-29T12:56:30;1.40;;;1.08;;
11305;SDS011;5708;50.660;6.778;2023-07-29T12:58:56;1.52;;;1.02;;
11305;SDS011;5708;50.660;6.778;2023-07-29T13:01:23;1.88;;;1.27;;
11305;SDS011;5708;50.660;6.778;2023-07-29T13:03:48;1.98;;;1.17;;
11305;SDS011;5708;50.660;6.778;2023-07-29T13:06:14;4.78;;;1.40;;
11305;SDS011;5708;50.660;6.778;2023-07-29T13:08:41;2.17;;;1.30;;
11305;SDS011;5708;50.660;6.778;2023-07-29T13:11:07;2.42;;;1.10;;
11305;SDS011;5708;50.660;6.778;2023-07-29T13:13:32;2.03;;;1.13;;
11305;SDS011;5708;50.660;6.778;2023-07-29T13:15:57;2.78;;;1.58;;
11305;SDS011;5708;50.660;6.778;2023-07-29T13:18:23;4.95;;;1.48;;
11305;SDS011;5708;50.660;6.778;2023-07-29T13:20:48;3.05;;;1.30;;
11305;SDS011;5708;50.660;6.778;2023-07-29T13:23:14;3.47;;;1.77;;
11305;SDS011;5708;50.660;6.778;2023-07-29T13:25:40;6.05;;;1.65;;
11305;SDS011;5708;50.660;6.778;2023-07-29T13:28:06;2.85;;;1.67;;
11305;SDS011;5708;50.660;6.778;2023-07-29T13:30:32;2.75;;;1.65;;
11305;SDS011;5708;50.660;6.778;2023-07-29T13:32:58;2.30;;;1.30;;
11305;SDS011;5708;50.660;6.778;2023-07-29T13:35:23;5.22;;;1.80;;
11305;SDS011;5708;50.660;6.778;2023-07-29T13:37:49;2.25;;;1.50;;
11305;SDS011;5708;50.660;6.778;2023-07-29T13:40:14;2.17;;;1.67;;
11305;SDS011;5708;50.660;6.778;2023-07-29T13:42:39;3.97;;;1.77;;
11305;SDS011;5708;50.660;6.778;2023-07-29T13:45:05;2.92;;;1.60;;
11305;SDS011;5708;50.660;6.778;2023-07-29T13:47:31;3.67;;;1.50;;
11305;SDS011;5708;50.660;6.778;2023-07-29T13:49:56;2.13;;;1.45;;
11305;SDS011;5708;50.660;6.778;2023-07-29T13:52:21;3.15;;;1.63;;
11305;SDS011;5708;50.660;6.778;2023-07-29T13:54:47;2.75;;;1.80;;
11305;SDS011;5708;50.660;6.778;2023-07-29T13:57:12;5.40;;;1.80;;
11305;SDS011;5708;50.660;6.778;2023-07-29T13:59:37;3.15;;;1.48;;
11305;SDS011;5708;50.660;6.778;2023-07-29T14:02:06;2.67;;;1.55;;
11305;SDS011;5708;50.660;6.778;2023-07-29T14:04:32;5.20;;;1.63;;
11305;SDS011;5708;50.660;6.778;2023-07-29T14:07:01;6.07;;;1.83;;
11305;SDS011;5708;50.660;6.778;2023-07-29T14:09:27;4.40;;;1.98;;
11305;SDS011;5708;50.660;6.778;2023-07-29T14:11:53;4.85;;;1.70;;
11305;SDS011;5708;50.660;6.778;2023-07-29T14:14:19;2.42;;;1.50;;
11305;SDS011;5708;50.660;6.778;2023-07-29T14:16:44;3.13;;;1.85;;
11305;SDS011;5708;50.660;6.778;2023-07-29T14:19:09;2.55;;;1.60;;
11305;SDS011;5708;50.660;6.778;2023-07-29T14:21:35;9.65;;;2.10;;
11305;SDS011;5708;50.660;6.778;2023-07-29T14:24:00;4.00;;;1.95;;
11305;SDS011;5708;50.660;6.778;2023-07-29T14:26:26;4.75;;;2.30;;
11305;SDS011;5708;50.660;6.778;2023-07-29T14:28:51;5.72;;;1.92;;
11305;SDS011;5708;50.660;6.778;2023-07-29T14:31:16;3.38;;;2.05;;
11305;SDS011;5708;50.660;6.778;2023-07-29T14:33:42;3.33;;;1.45;;
11305;SDS011;5708;50.660;6.778;2023-07-29T14:36:08;4.40;;;1.60;;
11305;SDS011;5708;50.660;6.778;2023-07-29T14:38:34;3.85;;;1.70;;
11305;SDS011;5708;50.660;6.778;2023-07-29T14:41:00;2.53;;;1.35;;
11305;SDS011;5708;50.660;6.778;2023-07-29T14:43:25;2.55;;;1.33;;
11305;SDS011;5708;50.660;6.778;2023-07-29T14:45:51;3.40;;;1.80;;
11305;SDS011;5708;50.660;6.778;2023-07-29T14:48:16;2.53;;;1.58;;
11305;SDS011;5708;50.660;6.778;2023-07-29T14:50:41;3.45;;;1.58;;
11305;SDS011;5708;50.660;6.778;2023-07-29T14:53:08;3.53;;;1.92;;
11305;SDS011;5708;50.660;6.778;2023-07-29T14:55:34;3.65;;;1.70;;
11305;SDS011;5708;50.660;6.778;2023-07-29T14:57:59;2.72;;;1.40;;
11305;SDS011;5708;50.660;6.778;2023-07-29T15:00:25;2.65;;;1.60;;
11305;SDS011;5708;50.660;6.778;2023-07-29T15:02:50;2.85;;;1.60;;